createdAt,value
2023-12-04T00:00:58.353Z,6.97
2023-12-04T00:03:46.325Z,7.83
2023-12-04T00:06:33.699Z,7.50
2023-12-04T00:09:25.266Z,8.00
2023-12-04T00:12:13.105Z,7.47
2023-12-04T00:15:00.364Z,6.27
2023-12-04T00:17:47.833Z,6.87
2023-12-04T00:20:36.030Z,7.10
2023-12-04T00:23:23.902Z,7.70
2023-12-04T00:26:14.018Z,8.00
2023-12-04T00:29:02.225Z,8.47
2023-12-04T00:31:49.540Z,7.87
2023-12-04T00:34:37.701Z,7.83
2023-12-04T00:37:25.527Z,8.63
2023-12-04T00:40:13.464Z,8.57
2023-12-04T00:43:02.218Z,9.07
2023-12-04T00:45:50.410Z,9.03
2023-12-04T00:48:37.812Z,9.07
2023-12-04T00:51:26.024Z,9.70
2023-12-04T00:54:13.314Z,9.77
2023-12-04T00:57:01.437Z,8.97
2023-12-04T00:59:50.154Z,10.30
2023-12-04T01:02:38.333Z,9.60
2023-12-04T01:05:26.077Z,10.23
2023-12-04T01:08:14.082Z,8.57
2023-12-04T01:11:01.830Z,10.33
2023-12-04T01:13:49.967Z,8.73
2023-12-04T01:16:39.438Z,9.60
2023-12-04T01:19:27.271Z,10.07
2023-12-04T01:22:15.042Z,9.30
2023-12-04T01:25:04.408Z,9.47
2023-12-04T01:27:51.766Z,9.10
2023-12-04T01:30:39.995Z,8.77
2023-12-04T01:33:28.649Z,9.90
2023-12-04T01:36:16.787Z,9.00
2023-12-04T01:39:04.798Z,8.87
2023-12-04T01:41:53.276Z,9.70
2023-12-04T01:44:40.543Z,9.10
2023-12-04T01:47:28.790Z,9.30
2023-12-04T01:50:17.691Z,9.17
2023-12-04T01:53:06.420Z,9.40
2023-12-04T01:55:54.312Z,8.03
2023-12-04T01:58:42.528Z,9.37
2023-12-04T02:01:30.518Z,7.80
2023-12-04T02:04:17.827Z,8.67
2023-12-04T02:07:07.417Z,8.33
2023-12-04T02:09:54.801Z,8.87
2023-12-04T02:12:43.169Z,8.63
2023-12-04T02:15:30.453Z,7.67
2023-12-04T02:18:19.700Z,8.90
2023-12-04T02:21:08.190Z,8.37
2023-12-04T02:23:57.298Z,8.50
2023-12-04T02:26:48.764Z,8.53
2023-12-04T02:29:41.533Z,8.57
2023-12-04T02:32:32.566Z,8.67
2023-12-04T02:35:23.156Z,9.50
2023-12-04T02:38:12.952Z,9.03
2023-12-04T02:41:01.621Z,9.10
2023-12-04T02:43:49.832Z,7.40
2023-12-04T02:46:37.564Z,7.90
2023-12-04T02:49:24.897Z,7.33
2023-12-04T02:52:13.625Z,8.53
2023-12-04T02:55:00.999Z,6.87
2023-12-04T02:57:50.607Z,7.40
2023-12-04T03:00:37.792Z,7.00
2023-12-04T03:03:25.586Z,7.53
2023-12-04T03:06:12.950Z,6.87
2023-12-04T03:09:01.289Z,6.57
2023-12-04T03:11:48.596Z,7.70
2023-12-04T03:14:38.158Z,6.40
2023-12-04T03:17:26.456Z,6.73
2023-12-04T03:20:14.210Z,7.17
2023-12-04T03:23:01.451Z,6.70
2023-12-04T03:25:49.680Z,7.07
2023-12-04T03:28:36.983Z,7.13
2023-12-04T03:31:26.819Z,7.37
2023-12-04T03:34:14.175Z,7.60
2023-12-04T03:37:02.434Z,7.00
2023-12-04T03:39:51.846Z,7.47
2023-12-04T03:42:40.157Z,6.87
2023-12-04T03:45:27.643Z,6.40
2023-12-04T03:48:16.822Z,6.17
2023-12-04T03:51:05.399Z,6.63
2023-12-04T03:53:53.582Z,7.50
2023-12-04T03:56:41.495Z,6.97
2023-12-04T03:59:29.697Z,6.57
2023-12-04T04:02:17.519Z,6.30
2023-12-04T04:05:07.847Z,6.60
2023-12-04T04:07:55.570Z,6.43
2023-12-04T04:10:43.354Z,6.77
2023-12-04T04:13:30.598Z,6.77
2023-12-04T04:16:18.763Z,6.63
2023-12-04T04:19:07.232Z,6.53
2023-12-04T04:21:56.902Z,6.80
2023-12-04T04:24:44.749Z,6.60
2023-12-04T04:27:32.548Z,7.30
2023-12-04T04:30:21.123Z,6.53
2023-12-04T04:33:08.587Z,7.17
2023-12-04T04:35:56.745Z,5.73
2023-12-04T04:38:45.348Z,6.10
2023-12-04T04:41:33.686Z,6.37
2023-12-04T04:44:20.948Z,6.77
2023-12-04T04:47:09.253Z,7.47
2023-12-04T04:49:56.519Z,6.30
2023-12-04T04:52:44.696Z,6.27
2023-12-04T04:55:47.044Z,6.10
2023-12-04T04:58:37.323Z,6.77
2023-12-04T05:01:24.758Z,7.53
2023-12-04T05:04:13.829Z,7.07
2023-12-04T05:07:01.586Z,6.03
2023-12-04T05:09:50.182Z,6.20
2023-12-04T05:12:38.710Z,6.90
2023-12-04T05:15:26.940Z,7.27
2023-12-04T05:18:14.756Z,7.23
2023-12-04T05:21:02.525Z,6.57
2023-12-04T05:23:49.772Z,5.83
2023-12-04T05:26:37.908Z,6.40
2023-12-04T05:29:26.608Z,7.00
2023-12-04T05:32:15.044Z,5.70
2023-12-04T05:35:02.833Z,5.83
2023-12-04T05:37:51.187Z,5.63
2023-12-04T05:40:38.934Z,5.57
2023-12-04T05:43:26.189Z,6.13
2023-12-04T05:46:15.864Z,7.77
2023-12-04T05:49:03.190Z,6.37
2023-12-04T05:51:51.011Z,5.93
2023-12-04T05:54:38.894Z,7.47
2023-12-04T05:57:26.649Z,6.63
2023-12-04T06:00:14.851Z,6.80
2023-12-04T06:03:04.282Z,6.50
2023-12-04T06:05:55.083Z,6.20
2023-12-04T06:08:44.940Z,6.90
2023-12-04T06:11:32.219Z,5.90
2023-12-04T06:14:20.399Z,5.97
2023-12-04T06:17:08.336Z,5.63
2023-12-04T06:19:57.487Z,7.17
2023-12-04T06:22:45.296Z,5.87
2023-12-04T06:25:34.016Z,6.67
2023-12-04T06:28:21.862Z,6.57
2023-12-04T06:31:11.650Z,6.23
2023-12-04T06:33:59.561Z,6.70
2023-12-04T06:36:49.971Z,5.80
2023-12-04T06:39:39.013Z,7.63
2023-12-04T06:42:27.685Z,6.63
2023-12-04T06:45:15.913Z,5.67
2023-12-04T06:48:04.777Z,6.40
2023-12-04T06:50:52.056Z,6.60
2023-12-04T06:53:41.776Z,7.10
2023-12-04T06:56:29.517Z,6.00
2023-12-04T06:59:19.318Z,6.47
2023-12-04T07:02:07.250Z,7.17
2023-12-04T07:04:55.450Z,6.77
2023-12-04T07:07:42.954Z,6.23
2023-12-04T07:10:35.314Z,7.03
2023-12-04T07:13:22.914Z,8.17
2023-12-04T07:16:11.273Z,8.20
2023-12-04T07:18:58.629Z,7.10
2023-12-04T07:21:46.442Z,6.93
2023-12-04T07:24:34.160Z,7.03
2023-12-04T07:27:22.829Z,6.90
2023-12-04T07:30:11.099Z,7.63
2023-12-04T07:32:58.447Z,6.77
2023-12-04T07:35:46.670Z,6.93
2023-12-04T07:38:33.990Z,7.90
2023-12-04T07:41:22.936Z,8.33
2023-12-04T07:44:11.714Z,7.87
2023-12-04T07:46:59.502Z,7.53
2023-12-04T07:49:47.000Z,6.17
2023-12-04T07:52:34.588Z,5.93
2023-12-04T07:55:22.012Z,7.60
2023-12-04T07:58:09.447Z,6.70
2023-12-04T08:00:58.139Z,6.73
2023-12-04T08:03:46.406Z,6.40
2023-12-04T08:06:34.324Z,6.97
2023-12-04T08:09:22.557Z,6.23
2023-12-04T08:12:10.082Z,6.23
2023-12-04T08:14:57.475Z,6.57
2023-12-04T08:17:46.214Z,6.37
2023-12-04T08:20:40.107Z,6.30
2023-12-04T08:23:31.369Z,5.47
2023-12-04T08:26:23.289Z,6.27
2023-12-04T08:29:10.676Z,7.23
2023-12-04T08:31:58.356Z,6.97
2023-12-04T08:34:46.980Z,6.33
2023-12-04T08:37:34.481Z,6.10
2023-12-04T08:40:21.924Z,6.67
2023-12-04T08:43:09.655Z,6.57
2023-12-04T08:45:57.119Z,9.57
2023-12-04T08:48:46.474Z,10.73
2023-12-04T08:51:35.324Z,10.83
2023-12-04T08:54:23.289Z,12.57
2023-12-04T08:57:10.888Z,11.47
2023-12-04T09:00:00.294Z,13.27
2023-12-04T09:02:53.761Z,12.83
2023-12-04T09:05:45.755Z,13.70
2023-12-04T09:08:41.100Z,12.17
2023-12-04T09:11:33.501Z,13.30
2023-12-04T09:14:21.789Z,13.43
2023-12-04T09:17:09.152Z,13.50
2023-12-04T09:19:57.625Z,12.07
2023-12-04T09:22:50.438Z,12.47
2023-12-04T09:25:42.335Z,11.23
2023-12-04T09:28:29.645Z,12.00
2023-12-04T09:31:17.561Z,12.90
2023-12-04T09:34:05.357Z,11.97
2023-12-04T09:36:55.537Z,12.20
2023-12-04T09:39:43.495Z,11.90
2023-12-04T09:42:32.946Z,11.80
2023-12-04T09:45:22.596Z,11.27
2023-12-04T09:48:11.110Z,12.70
2023-12-04T09:51:00.319Z,12.57
2023-12-04T09:53:50.032Z,12.93
2023-12-04T09:56:38.521Z,11.47
2023-12-04T09:59:30.832Z,12.50
2023-12-04T10:02:19.046Z,12.03
2023-12-04T10:05:08.076Z,11.90
2023-12-04T10:07:55.269Z,12.53
2023-12-04T10:10:43.418Z,12.83
2023-12-04T10:13:56.460Z,11.53
2023-12-04T10:16:40.446Z,11.17
2023-12-04T10:19:30.625Z,12.03
2023-12-04T10:22:18.489Z,12.03
2023-12-04T10:25:16.408Z,12.97
2023-12-04T10:28:11.621Z,12.00
2023-12-04T10:30:59.835Z,11.07
2023-12-04T10:33:50.765Z,10.47
2023-12-04T10:36:39.834Z,10.67
2023-12-04T10:39:29.663Z,10.13
2023-12-04T10:42:26.659Z,10.33
2023-12-04T10:45:14.680Z,10.17
2023-12-04T10:48:06.476Z,8.77
2023-12-04T10:50:56.045Z,8.73
2023-12-04T10:53:44.104Z,8.37
2023-12-04T10:56:35.948Z,7.90
2023-12-04T10:59:28.842Z,7.27
2023-12-04T11:02:22.156Z,8.47
2023-12-04T11:05:16.082Z,8.57
2023-12-04T11:08:15.442Z,8.70
2023-12-04T11:11:09.508Z,9.43
2023-12-04T11:14:02.415Z,9.37
2023-12-04T11:16:58.674Z,9.13
2023-12-04T11:19:53.219Z,9.53
2023-12-04T11:22:42.545Z,8.93
2023-12-04T11:25:35.909Z,8.77
2023-12-04T11:28:24.013Z,8.93
2023-12-04T11:31:12.838Z,7.83
2023-12-04T11:34:03.470Z,7.50
2023-12-04T11:36:52.454Z,7.03
2023-12-04T11:39:41.037Z,7.83
2023-12-04T11:42:32.441Z,7.70
2023-12-04T11:45:21.567Z,8.00
2023-12-04T11:48:10.669Z,7.93
2023-12-04T11:50:58.824Z,9.93
2023-12-04T11:53:46.630Z,11.77
2023-12-04T11:56:33.893Z,11.60
2023-12-04T11:59:23.056Z,11.50
2023-12-04T12:02:12.120Z,13.00
2023-12-04T12:05:00.425Z,11.90
2023-12-04T12:07:48.791Z,12.43
2023-12-04T12:10:36.159Z,11.97
2023-12-04T12:13:27.387Z,11.67
2023-12-04T12:16:16.612Z,11.30
2023-12-04T12:19:04.137Z,11.13
2023-12-04T12:21:53.341Z,11.60
2023-12-04T12:24:41.138Z,11.20
2023-12-04T12:27:28.400Z,9.90
2023-12-04T12:30:15.758Z,9.73
2023-12-04T12:33:05.025Z,9.60
2023-12-04T12:35:58.182Z,10.17
2023-12-04T12:38:51.249Z,9.40
2023-12-04T12:41:39.060Z,9.70
2023-12-04T12:44:28.009Z,8.70
2023-12-04T12:47:17.132Z,9.67
2023-12-04T12:50:11.533Z,9.43
2023-12-04T12:52:59.087Z,9.37
2023-12-04T12:55:48.267Z,10.30
2023-12-04T12:58:36.262Z,9.03
2023-12-04T13:01:26.893Z,9.37
2023-12-04T13:04:16.722Z,8.77
2023-12-04T13:07:07.546Z,8.60
2023-12-04T13:09:55.347Z,10.30
2023-12-04T13:12:42.666Z,10.03
2023-12-04T13:15:31.378Z,9.17
2023-12-04T13:18:19.191Z,9.63
2023-12-04T13:21:06.955Z,9.07
2023-12-04T13:23:56.095Z,10.63
2023-12-04T13:26:44.006Z,11.50
2023-12-04T13:29:31.638Z,10.87
2023-12-04T13:32:19.024Z,12.37
2023-12-04T13:35:07.400Z,12.97
2023-12-04T13:37:58.128Z,12.00
2023-12-04T13:41:00.443Z,10.33
2023-12-04T13:43:54.437Z,10.70
2023-12-04T13:46:41.803Z,10.47
2023-12-04T13:49:29.192Z,10.80
2023-12-04T13:52:16.782Z,11.47
2023-12-04T13:55:15.360Z,10.33
2023-12-04T13:58:11.956Z,9.83
2023-12-04T14:01:00.836Z,10.77
2023-12-04T14:03:49.072Z,11.17
2023-12-04T14:06:37.693Z,11.43
2023-12-04T14:09:25.418Z,12.20
2023-12-04T14:12:13.381Z,13.20
2023-12-04T14:15:02.068Z,13.17
2023-12-04T14:17:49.458Z,13.53
2023-12-04T14:20:36.946Z,13.03
2023-12-04T14:23:24.809Z,13.80
2023-12-04T14:26:12.121Z,14.40
2023-12-04T14:29:02.719Z,15.57
2023-12-04T14:31:51.430Z,14.93
2023-12-04T14:34:38.722Z,15.27
2023-12-04T14:37:27.060Z,14.50
2023-12-04T14:40:17.646Z,15.57
2023-12-04T14:43:06.385Z,14.93
2023-12-04T14:45:53.581Z,13.47
2023-12-04T14:48:43.464Z,15.83
2023-12-04T14:51:30.710Z,16.10
2023-12-04T14:54:38.991Z,14.60
2023-12-04T14:57:41.148Z,15.37
2023-12-04T15:00:47.482Z,16.93
2023-12-04T15:04:04.308Z,16.10
2023-12-04T15:06:52.856Z,17.33
2023-12-04T15:09:59.387Z,15.50
2023-12-04T15:12:47.184Z,17.53
2023-12-04T15:15:52.931Z,17.33
2023-12-04T15:18:59.373Z,17.73
2023-12-04T15:21:46.844Z,18.47
2023-12-04T15:24:36.385Z,17.93
2023-12-04T15:27:24.115Z,18.63
2023-12-04T15:30:13.668Z,19.90
2023-12-04T15:33:01.718Z,17.90
2023-12-04T15:35:48.930Z,17.47
2023-12-04T15:38:36.707Z,16.77
2023-12-04T15:41:25.389Z,16.77
2023-12-04T15:44:13.553Z,18.17
2023-12-04T15:47:01.968Z,19.40
2023-12-04T15:49:50.347Z,21.40
2023-12-04T15:52:41.566Z,31.33
2023-12-04T15:55:28.992Z,24.90
2023-12-04T15:58:17.685Z,22.80
2023-12-04T16:01:07.464Z,20.67
2023-12-04T16:03:55.498Z,20.07
2023-12-04T16:06:43.146Z,23.47
2023-12-04T16:09:30.482Z,20.63
2023-12-04T16:12:18.468Z,22.07
2023-12-04T16:15:09.743Z,21.60
2023-12-04T16:17:57.696Z,22.20
2023-12-04T16:20:47.709Z,21.17
2023-12-04T16:23:36.012Z,20.23
2023-12-04T16:26:23.288Z,20.57
2023-12-04T16:29:11.515Z,20.53
2023-12-04T16:32:00.108Z,21.03
2023-12-04T16:34:49.265Z,21.83
2023-12-04T16:37:37.540Z,21.70
2023-12-04T16:40:25.538Z,24.13
2023-12-04T16:43:12.860Z,21.20
2023-12-04T16:46:00.585Z,22.07
2023-12-04T16:48:49.810Z,21.27
2023-12-04T16:51:37.686Z,21.60
2023-12-04T16:54:25.057Z,23.17
2023-12-04T16:57:13.730Z,21.00
2023-12-04T17:00:01.597Z,19.33
2023-12-04T17:02:48.996Z,19.30
2023-12-04T17:05:38.876Z,20.20
2023-12-04T17:08:26.648Z,19.40
2023-12-04T17:11:14.409Z,19.17
2023-12-04T17:14:01.827Z,18.47
2023-12-04T17:16:49.984Z,16.00
2023-12-04T17:19:37.768Z,16.57
2023-12-04T17:22:28.416Z,17.50
2023-12-04T17:25:16.541Z,15.70
2023-12-04T17:28:04.794Z,15.47
2023-12-04T17:30:53.368Z,14.93
2023-12-04T17:33:40.850Z,14.20
2023-12-04T17:36:28.940Z,13.33
2023-12-04T17:39:18.827Z,12.63
2023-12-04T17:42:06.377Z,13.20
2023-12-04T17:44:55.208Z,12.90
2023-12-04T17:47:42.539Z,12.93
2023-12-04T17:50:30.702Z,11.70
2023-12-04T17:53:18.460Z,12.17
2023-12-04T17:56:08.606Z,11.30
2023-12-04T17:58:56.836Z,11.40
2023-12-04T18:01:44.206Z,11.47
2023-12-04T18:04:32.911Z,11.43
2023-12-04T18:07:20.200Z,11.93
2023-12-04T18:10:09.289Z,11.80
2023-12-04T18:12:58.078Z,10.73
2023-12-04T18:15:46.405Z,11.67
2023-12-04T18:18:34.161Z,12.43
2023-12-04T18:21:21.666Z,12.23
2023-12-04T18:24:09.876Z,12.27
2023-12-04T18:26:58.072Z,14.50
2023-12-04T18:29:47.737Z,12.97
2023-12-04T18:32:35.748Z,12.50
2023-12-04T18:35:24.563Z,13.20
2023-12-04T18:38:17.496Z,13.33
2023-12-04T18:41:07.283Z,13.53
2023-12-04T18:43:55.517Z,13.27
2023-12-04T18:46:47.001Z,13.27
2023-12-04T18:49:40.215Z,13.40
2023-12-04T18:52:28.281Z,13.03
2023-12-04T18:55:16.082Z,13.23
2023-12-04T18:58:04.952Z,13.80
2023-12-04T19:00:52.800Z,13.10
2023-12-04T19:03:42.411Z,12.33
2023-12-04T19:06:29.869Z,12.43
2023-12-04T19:09:18.631Z,12.87
2023-12-04T19:12:06.736Z,13.10
2023-12-04T19:14:55.370Z,12.90
2023-12-04T19:17:43.123Z,12.13
2023-12-04T19:20:31.955Z,11.53
2023-12-04T19:23:19.214Z,12.33
2023-12-04T19:26:08.309Z,12.27
2023-12-04T19:28:56.030Z,13.13
2023-12-04T19:31:43.520Z,12.70
2023-12-04T19:34:31.387Z,11.07
2023-12-04T19:37:19.920Z,11.47
2023-12-04T19:40:13.356Z,12.83
2023-12-04T19:43:00.651Z,13.03
2023-12-04T19:45:48.982Z,15.70
2023-12-04T19:48:36.329Z,18.33
2023-12-04T19:51:23.501Z,20.10
2023-12-04T19:54:12.623Z,18.07
2023-12-04T19:57:01.085Z,17.37
2023-12-04T19:59:50.886Z,17.67
2023-12-04T20:02:38.754Z,17.30
2023-12-04T20:05:26.196Z,17.13
2023-12-04T20:08:15.857Z,17.53
2023-12-04T20:11:05.362Z,18.10
2023-12-04T20:13:52.616Z,18.60
2023-12-04T20:16:40.093Z,19.43
2023-12-04T20:19:27.513Z,19.03
2023-12-04T20:22:17.307Z,18.80
2023-12-04T20:25:06.008Z,17.10
2023-12-04T20:27:55.221Z,17.53
2023-12-04T20:30:42.727Z,17.33
2023-12-04T20:33:30.114Z,17.47
2023-12-04T20:36:17.629Z,17.10
2023-12-04T20:39:05.404Z,18.97
2023-12-04T20:41:53.556Z,16.47
2023-12-04T20:44:42.701Z,16.13
2023-12-04T20:47:30.679Z,15.33
2023-12-04T20:50:18.423Z,14.43
2023-12-04T20:53:05.846Z,14.17
2023-12-04T20:55:54.072Z,13.90
2023-12-04T20:58:42.827Z,13.27
2023-12-04T21:01:31.518Z,13.93
2023-12-04T21:04:19.616Z,14.87
2023-12-04T21:07:07.734Z,14.53
2023-12-04T21:09:55.098Z,14.20
2023-12-04T21:12:42.355Z,13.93
2023-12-04T21:15:30.331Z,14.77
2023-12-04T21:18:19.086Z,13.87
2023-12-04T21:21:07.906Z,13.80
2023-12-04T21:23:55.145Z,13.93
2023-12-04T21:26:43.713Z,12.37
2023-12-04T21:29:30.988Z,12.17
2023-12-04T21:32:19.193Z,12.43
2023-12-04T21:35:09.066Z,11.73
2023-12-04T21:37:57.272Z,11.70
2023-12-04T21:40:44.816Z,11.13
2023-12-04T21:43:32.960Z,12.17
2023-12-04T21:46:21.178Z,11.30
2023-12-04T21:49:08.894Z,10.60
2023-12-04T21:51:58.496Z,11.70
2023-12-04T21:54:46.814Z,10.63
2023-12-04T21:57:35.095Z,10.47
2023-12-04T22:00:23.786Z,11.33
2023-12-04T22:03:12.441Z,10.43
2023-12-04T22:05:59.701Z,10.67
2023-12-04T22:08:49.225Z,11.10
2023-12-04T22:11:37.025Z,11.20
2023-12-04T22:14:24.734Z,11.00
2023-12-04T22:17:13.449Z,11.40
2023-12-04T22:20:00.793Z,11.30
2023-12-04T22:22:48.950Z,11.20
2023-12-04T22:25:37.598Z,10.83
2023-12-04T22:28:25.811Z,10.77
2023-12-04T22:31:14.413Z,10.47
2023-12-04T22:34:02.612Z,9.47
2023-12-04T22:36:50.758Z,10.63
2023-12-04T22:39:38.701Z,9.57
2023-12-04T22:42:28.150Z,9.27
2023-12-04T22:45:16.727Z,9.57
2023-12-04T22:48:04.153Z,10.03
2023-12-04T22:50:52.394Z,9.37
2023-12-04T22:53:40.244Z,8.70
2023-12-04T22:56:27.628Z,8.43
2023-12-04T22:59:17.230Z,8.87
2023-12-04T23:02:05.046Z,8.00
2023-12-04T23:04:54.300Z,8.67
2023-12-04T23:07:42.232Z,8.43
2023-12-04T23:10:30.417Z,8.20
2023-12-04T23:13:17.761Z,8.63
2023-12-04T23:16:08.734Z,7.83
2023-12-04T23:18:57.221Z,8.00
2023-12-04T23:21:46.341Z,7.30
2023-12-04T23:24:33.599Z,8.03
2023-12-04T23:27:28.416Z,7.80
2023-12-04T23:30:23.093Z,7.30
2023-12-04T23:33:11.921Z,6.70
2023-12-04T23:36:00.165Z,6.17
2023-12-04T23:38:47.927Z,6.67
2023-12-04T23:41:35.859Z,5.70
2023-12-04T23:44:23.614Z,6.20
2023-12-04T23:47:10.972Z,5.70
2023-12-04T23:50:00.566Z,5.60
2023-12-04T23:52:47.903Z,5.73
2023-12-04T23:55:36.047Z,6.07
2023-12-04T23:58:23.469Z,5.67
